createdAt,value
2022-11-08T00:00:02.047Z,100.00
2022-11-08T00:02:31.330Z,100.00
2022-11-08T00:04:58.028Z,100.00
2022-11-08T00:07:43.408Z,100.00
2022-11-08T00:10:28.447Z,100.00
2022-11-08T00:13:15.088Z,100.00
2022-11-08T00:15:41.672Z,100.00
2022-11-08T00:18:08.353Z,100.00
2022-11-08T00:20:34.977Z,100.00
2022-11-08T00:23:02.096Z,100.00
2022-11-08T00:25:28.794Z,100.00
2022-11-08T00:27:55.517Z,100.00
2022-11-08T00:30:22.267Z,100.00
2022-11-08T00:32:48.977Z,100.00
2022-11-08T00:35:16.376Z,100.00
2022-11-08T00:37:43.242Z,100.00
2022-11-08T00:40:10.616Z,100.00
2022-11-08T00:42:37.220Z,100.00
2022-11-08T00:45:04.304Z,100.00
2022-11-08T00:47:31.084Z,100.00
2022-11-08T00:49:57.739Z,100.00
2022-11-08T00:52:24.391Z,100.00
2022-11-08T00:54:50.990Z,100.00
2022-11-08T00:57:17.603Z,100.00
2022-11-08T00:59:44.242Z,100.00
2022-11-08T01:02:10.914Z,100.00
2022-11-08T01:04:37.559Z,100.00
2022-11-08T01:07:04.194Z,100.00
2022-11-08T01:09:30.764Z,100.00
2022-11-08T01:11:57.478Z,100.00
2022-11-08T01:14:24.084Z,100.00
2022-11-08T01:16:50.754Z,100.00
2022-11-08T01:19:17.335Z,100.00
2022-11-08T01:21:44.101Z,100.00
2022-11-08T01:24:10.758Z,100.00
2022-11-08T01:26:37.357Z,100.00
2022-11-08T01:29:04.071Z,100.00
2022-11-08T01:31:32.370Z,100.00
2022-11-08T01:33:59.437Z,100.00
2022-11-08T01:36:27.710Z,100.00
2022-11-08T01:38:54.558Z,100.00
2022-11-08T01:41:23.576Z,100.00
2022-11-08T01:43:51.739Z,100.00
2022-11-08T01:46:18.293Z,100.00
2022-11-08T01:48:53.513Z,100.00
2022-11-08T01:51:23.462Z,100.00
2022-11-08T01:53:50.973Z,100.00
2022-11-08T01:56:17.933Z,100.00
2022-11-08T01:58:46.992Z,100.00
2022-11-08T02:01:13.634Z,100.00
2022-11-08T02:03:41.196Z,100.00
2022-11-08T02:06:08.164Z,100.00
2022-11-08T02:08:41.063Z,100.00
2022-11-08T02:11:08.876Z,100.00
2022-11-08T02:13:37.584Z,100.00
2022-11-08T02:16:09.668Z,100.00
2022-11-08T02:18:36.448Z,100.00
2022-11-08T02:21:02.926Z,100.00
2022-11-08T02:23:43.776Z,100.00
2022-11-08T02:26:10.529Z,100.00
2022-11-08T02:28:41.404Z,100.00
2022-11-08T02:31:09.649Z,100.00
2022-11-08T02:33:36.362Z,100.00
2022-11-08T02:36:03.644Z,100.00
2022-11-08T02:38:30.422Z,100.00
2022-11-08T02:40:57.444Z,100.00
2022-11-08T02:43:24.801Z,100.00
2022-11-08T02:45:52.314Z,100.00
2022-11-08T02:48:20.429Z,100.00
2022-11-08T02:50:47.466Z,100.00
2022-11-08T02:53:14.219Z,100.00
2022-11-08T02:55:40.920Z,100.00
2022-11-08T02:58:07.585Z,100.00
2022-11-08T03:00:34.767Z,100.00
2022-11-08T03:03:01.428Z,100.00
2022-11-08T03:05:28.668Z,100.00
2022-11-08T03:07:55.897Z,100.00
2022-11-08T03:10:24.390Z,100.00
2022-11-08T03:12:58.994Z,100.00
2022-11-08T03:15:25.676Z,100.00
2022-11-08T03:17:52.407Z,100.00
2022-11-08T03:20:19.392Z,100.00
2022-11-08T03:22:46.518Z,100.00
2022-11-08T03:25:13.559Z,100.00
2022-11-08T03:27:40.489Z,100.00
2022-11-08T03:30:07.696Z,100.00
2022-11-08T03:32:34.352Z,100.00
2022-11-08T03:35:04.662Z,100.00
2022-11-08T03:37:31.278Z,100.00
2022-11-08T03:39:57.963Z,100.00
2022-11-08T03:42:24.564Z,100.00
2022-11-08T03:44:51.136Z,100.00
2022-11-08T03:47:17.749Z,100.00
2022-11-08T03:49:44.373Z,100.00
2022-11-08T03:52:11.018Z,100.00
2022-11-08T03:54:37.681Z,100.00
2022-11-08T03:57:04.375Z,100.00
2022-11-08T03:59:31.051Z,100.00
2022-11-08T04:01:57.839Z,100.00
2022-11-08T04:04:24.511Z,100.00
2022-11-08T04:06:51.276Z,100.00
2022-11-08T04:09:21.484Z,100.00
2022-11-08T04:12:07.085Z,100.00
2022-11-08T04:14:52.226Z,100.00
2022-11-08T04:17:18.911Z,100.00
2022-11-08T04:20:04.283Z,100.00
2022-11-08T04:22:30.915Z,100.00
2022-11-08T04:24:57.508Z,100.00
2022-11-08T04:27:24.126Z,100.00
2022-11-08T04:29:50.766Z,100.00
2022-11-08T04:32:17.377Z,100.00
2022-11-08T04:34:43.981Z,100.00
2022-11-08T04:37:13.844Z,100.00
2022-11-08T04:39:40.462Z,100.00
2022-11-08T04:42:07.073Z,100.00
2022-11-08T04:44:33.730Z,100.00
2022-11-08T04:47:00.379Z,100.00
2022-11-08T04:49:27.198Z,100.00
2022-11-08T04:51:55.901Z,100.00
2022-11-08T04:54:22.596Z,100.00
2022-11-08T04:56:49.223Z,100.00
2022-11-08T04:59:16.187Z,100.00
2022-11-08T05:01:43.204Z,100.00
2022-11-08T05:04:10.212Z,100.00
2022-11-08T05:06:36.853Z,100.00
2022-11-08T05:09:03.610Z,100.00
2022-11-08T05:11:31.022Z,100.00
2022-11-08T05:13:57.957Z,100.00
2022-11-08T05:16:31.885Z,100.00
2022-11-08T05:18:58.908Z,100.00
2022-11-08T05:21:44.169Z,100.00
2022-11-08T05:24:13.080Z,100.00
2022-11-08T05:26:44.864Z,100.00
2022-11-08T05:29:12.447Z,100.00
2022-11-08T05:31:39.408Z,100.00
2022-11-08T05:34:07.357Z,100.00
2022-11-08T05:36:34.093Z,100.00
2022-11-08T05:39:00.946Z,100.00
2022-11-08T05:41:27.598Z,100.00
2022-11-08T05:43:55.147Z,100.00
2022-11-08T05:46:22.829Z,100.00
2022-11-08T05:48:50.388Z,100.00
2022-11-08T05:51:18.769Z,100.00
2022-11-08T05:53:47.094Z,100.00
2022-11-08T05:56:13.946Z,100.00
2022-11-08T05:58:40.524Z,100.00
2022-11-08T06:01:09.998Z,100.00
2022-11-08T06:03:37.269Z,100.00
2022-11-08T06:06:08.063Z,100.00
2022-11-08T06:08:35.518Z,100.00
2022-11-08T06:11:11.022Z,100.00
2022-11-08T06:13:37.687Z,100.00
2022-11-08T06:16:06.816Z,100.00
2022-11-08T06:18:34.337Z,100.00
2022-11-08T06:21:01.801Z,100.00
2022-11-08T06:23:28.582Z,100.00
2022-11-08T06:25:55.504Z,100.00
2022-11-08T06:28:22.205Z,100.00
2022-11-08T06:30:48.900Z,100.00
2022-11-08T06:33:15.959Z,100.00
2022-11-08T06:35:42.792Z,100.00
2022-11-08T06:38:10.388Z,100.00
2022-11-08T06:40:40.575Z,100.00
2022-11-08T06:43:07.195Z,100.00
2022-11-08T06:45:33.839Z,100.00
2022-11-08T06:48:02.294Z,100.00
2022-11-08T06:50:30.510Z,100.00
2022-11-08T06:53:02.028Z,100.00
2022-11-08T06:55:29.762Z,100.00
2022-11-08T06:57:56.645Z,100.00
2022-11-08T07:00:23.531Z,100.00
2022-11-08T07:02:54.490Z,100.00
2022-11-08T07:05:21.642Z,100.00
2022-11-08T07:07:54.726Z,100.00
2022-11-08T07:10:23.269Z,100.00
2022-11-08T07:12:58.704Z,100.00
2022-11-08T07:15:25.376Z,100.00
2022-11-08T07:17:52.069Z,100.00
2022-11-08T07:20:18.891Z,100.00
2022-11-08T07:22:45.552Z,100.00
2022-11-08T07:25:12.235Z,100.00
2022-11-08T07:27:38.854Z,100.00
2022-11-08T07:30:06.058Z,100.00
2022-11-08T07:32:32.949Z,100.00
2022-11-08T07:34:59.595Z,100.00
2022-11-08T07:37:26.226Z,100.00
2022-11-08T07:39:52.845Z,100.00
2022-11-08T07:42:19.486Z,100.00
2022-11-08T07:44:46.085Z,100.00
2022-11-08T07:47:12.702Z,100.00
2022-11-08T07:49:39.397Z,100.00
2022-11-08T07:52:14.789Z,100.00
2022-11-08T07:54:58.780Z,100.00
2022-11-08T07:57:29.317Z,100.00
2022-11-08T08:00:02.366Z,100.00
2022-11-08T08:02:33.511Z,100.00
2022-11-08T08:05:01.096Z,100.00
2022-11-08T08:08:00.304Z,100.00
2022-11-08T08:10:36.460Z,100.00
2022-11-08T08:13:03.462Z,100.00
2022-11-08T08:15:58.153Z,100.00
2022-11-08T08:18:28.943Z,100.00
2022-11-08T08:20:55.638Z,100.00
2022-11-08T08:23:22.261Z,100.00
2022-11-08T08:25:48.946Z,100.00
2022-11-08T08:28:15.552Z,100.00
2022-11-08T08:30:42.246Z,100.00
2022-11-08T08:33:27.784Z,100.00
2022-11-08T08:35:57.505Z,100.00
2022-11-08T08:38:24.172Z,100.00
2022-11-08T08:40:51.370Z,100.00
2022-11-08T08:43:18.547Z,100.00
2022-11-08T08:45:45.901Z,100.00
2022-11-08T08:48:12.537Z,100.00
2022-11-08T08:50:39.196Z,100.00
2022-11-08T08:53:06.131Z,100.00
2022-11-08T08:55:35.518Z,100.00
2022-11-08T08:58:02.167Z,100.00
2022-11-08T09:03:15.809Z,100.00
2022-11-08T09:05:44.130Z,100.00
2022-11-08T09:08:11.435Z,100.00
2022-11-08T09:10:38.198Z,100.00
2022-11-08T09:13:05.166Z,100.00
2022-11-08T09:15:31.843Z,100.00
2022-11-08T09:17:58.460Z,100.00
2022-11-08T09:20:25.516Z,100.00
2022-11-08T09:22:52.104Z,100.00
2022-11-08T09:25:18.834Z,100.00
2022-11-08T09:27:45.447Z,100.00
2022-11-08T09:30:12.126Z,100.00
2022-11-08T09:32:59.721Z,100.00
2022-11-08T09:35:25.565Z,100.00
2022-11-08T09:37:55.602Z,100.00
2022-11-08T09:40:46.179Z,100.00
2022-11-08T09:43:37.651Z,100.00
2022-11-08T09:46:04.469Z,100.00
2022-11-08T09:48:36.406Z,100.00
2022-11-08T09:51:10.309Z,100.00
2022-11-08T09:53:54.521Z,100.00
2022-11-08T09:56:36.007Z,100.00
2022-11-08T09:59:25.754Z,100.00
2022-11-08T10:01:52.495Z,100.00
2022-11-08T10:04:24.670Z,100.00
2022-11-08T10:07:07.382Z,100.00
2022-11-08T10:10:11.750Z,100.00
2022-11-08T10:12:47.725Z,100.00
2022-11-08T10:15:34.536Z,100.00
2022-11-08T10:18:20.292Z,100.00
2022-11-08T10:21:02.041Z,100.00
2022-11-08T10:23:41.143Z,100.00
2022-11-08T10:26:20.591Z,100.00
2022-11-08T10:29:01.763Z,100.00
2022-11-08T10:31:32.970Z,100.00
2022-11-08T10:34:00.905Z,98.74
2022-11-08T10:36:32.071Z,99.78
2022-11-08T10:39:14.040Z,99.43
2022-11-08T10:41:54.617Z,98.68
2022-11-08T10:44:24.299Z,99.27
2022-11-08T10:47:02.181Z,97.49
2022-11-08T10:49:33.945Z,95.66
2022-11-08T10:52:12.753Z,95.26
2022-11-08T10:54:48.480Z,95.42
2022-11-08T10:57:39.556Z,95.42
2022-11-08T11:00:15.212Z,95.61
2022-11-08T11:02:42.980Z,96.51
2022-11-08T11:05:31.398Z,94.68
2022-11-08T11:08:04.739Z,93.11
2022-11-08T11:10:33.058Z,92.32
2022-11-08T11:16:04.638Z,91.63
2022-11-08T11:18:53.153Z,89.69
2022-11-08T11:21:22.350Z,89.69
2022-11-08T11:23:54.023Z,90.67
2022-11-08T11:26:40.791Z,88.16
2022-11-08T11:29:16.856Z,89.23
2022-11-08T11:31:46.456Z,89.61
2022-11-08T11:34:18.993Z,90.40
2022-11-08T11:36:50.838Z,88.29
2022-11-08T11:39:37.479Z,86.62
2022-11-08T11:42:39.318Z,84.79
2022-11-08T11:45:09.124Z,86.44
2022-11-08T11:47:53.521Z,84.19
2022-11-08T11:50:32.430Z,82.76
2022-11-08T11:53:01.111Z,82.68
2022-11-08T11:55:47.785Z,81.57
2022-11-08T11:58:41.595Z,82.55
2022-11-08T12:01:20.868Z,83.03
2022-11-08T12:04:07.180Z,83.91
2022-11-08T12:06:51.297Z,83.29
2022-11-08T12:09:36.636Z,82.12
2022-11-08T12:12:12.808Z,80.03
2022-11-08T12:14:53.373Z,82.51
2022-11-08T12:17:35.050Z,81.50
2022-11-08T12:20:27.136Z,82.00
2022-11-08T12:22:56.926Z,81.84
2022-11-08T12:25:29.259Z,79.08
2022-11-08T12:28:13.803Z,80.24
2022-11-08T12:30:51.130Z,81.35
2022-11-08T12:33:43.060Z,82.17
2022-11-08T12:36:22.145Z,81.78
2022-11-08T12:38:56.822Z,83.37
2022-11-08T12:41:52.187Z,82.99
2022-11-08T12:44:52.205Z,84.95
2022-11-08T12:47:28.818Z,86.16
2022-11-08T12:50:13.379Z,84.42
2022-11-08T12:52:46.923Z,84.42
2022-11-08T12:55:37.611Z,83.92
2022-11-08T12:58:52.521Z,84.00
2022-11-08T13:01:21.370Z,84.45
2022-11-08T13:04:19.628Z,85.15
2022-11-08T13:06:51.727Z,86.65
2022-11-08T13:09:29.099Z,87.32
2022-11-08T13:12:25.116Z,86.54
2022-11-08T13:14:52.378Z,86.21
2022-11-08T13:17:22.653Z,85.53
2022-11-08T13:19:52.819Z,84.62
2022-11-08T13:22:29.758Z,83.74
2022-11-08T13:25:08.778Z,83.39
2022-11-08T13:27:38.314Z,84.15
2022-11-08T13:30:10.921Z,85.31
2022-11-08T13:32:43.673Z,86.21
2022-11-08T13:35:22.568Z,84.04
2022-11-08T13:37:58.296Z,83.52
2022-11-08T13:40:36.942Z,84.30
2022-11-08T13:43:23.364Z,84.79
2022-11-08T13:45:50.432Z,85.84
2022-11-08T13:48:37.444Z,87.40
2022-11-08T13:51:26.160Z,87.28
2022-11-08T13:53:58.172Z,86.82
2022-11-08T13:56:40.729Z,87.75
2022-11-08T13:59:29.204Z,87.77
2022-11-08T14:02:03.390Z,88.73
2022-11-08T14:04:30.887Z,88.54
2022-11-08T14:07:02.486Z,89.90
2022-11-08T14:10:03.106Z,90.04
2022-11-08T14:12:32.943Z,90.63
2022-11-08T14:15:10.398Z,91.33
2022-11-08T14:17:49.186Z,90.25
2022-11-08T14:20:23.303Z,91.07
2022-11-08T14:22:50.675Z,91.65
2022-11-08T14:25:31.502Z,91.28
2022-11-08T14:27:58.812Z,91.02
2022-11-08T14:30:26.157Z,90.86
2022-11-08T14:33:29.652Z,90.84
2022-11-08T14:36:07.369Z,91.02
2022-11-08T14:38:36.952Z,89.57
2022-11-08T14:41:06.772Z,89.80
2022-11-08T14:43:46.105Z,88.90
2022-11-08T14:46:18.606Z,89.82
2022-11-08T14:48:56.843Z,89.77
2022-11-08T14:51:25.129Z,90.43
2022-11-08T14:53:53.738Z,91.95
2022-11-08T14:56:25.661Z,91.92
2022-11-08T14:58:53.849Z,92.18
2022-11-08T15:01:26.160Z,92.91
2022-11-08T15:03:56.676Z,93.81
2022-11-08T15:06:39.518Z,95.34
2022-11-08T15:09:07.384Z,96.19
2022-11-08T15:11:40.021Z,96.42
2022-11-08T15:14:09.130Z,98.27
2022-11-08T15:16:47.249Z,98.64
2022-11-08T15:19:42.656Z,97.33
2022-11-08T15:22:40.258Z,98.20
2022-11-08T15:25:30.074Z,98.70
2022-11-08T15:27:58.566Z,99.35
2022-11-08T15:30:31.373Z,99.93
2022-11-08T15:32:58.286Z,100.00
2022-11-08T15:35:36.665Z,100.00
2022-11-08T15:38:39.619Z,100.00
2022-11-08T15:41:32.928Z,100.00
2022-11-08T15:44:22.357Z,100.00
2022-11-08T15:46:50.140Z,100.00
2022-11-08T15:49:19.280Z,100.00
2022-11-08T15:51:47.199Z,100.00
2022-11-08T15:54:14.016Z,100.00
2022-11-08T15:56:41.274Z,100.00
2022-11-08T15:59:16.261Z,100.00
2022-11-08T16:01:50.840Z,100.00
2022-11-08T16:04:17.552Z,100.00
2022-11-08T16:06:44.451Z,100.00
2022-11-08T16:09:11.200Z,100.00
2022-11-08T16:11:40.634Z,100.00
2022-11-08T16:14:10.390Z,100.00
2022-11-08T16:16:36.980Z,100.00
2022-11-08T16:19:03.609Z,100.00
2022-11-08T16:21:30.248Z,100.00
2022-11-08T16:23:56.884Z,100.00
2022-11-08T16:26:23.596Z,100.00
2022-11-08T16:28:50.293Z,100.00
2022-11-08T16:31:18.060Z,100.00
2022-11-08T16:33:45.924Z,100.00
2022-11-08T16:36:18.392Z,100.00
2022-11-08T16:38:53.156Z,100.00
2022-11-08T16:41:20.483Z,100.00
2022-11-08T16:43:47.174Z,100.00
2022-11-08T16:46:14.079Z,100.00
2022-11-08T16:48:46.280Z,100.00
2022-11-08T16:51:17.593Z,100.00
2022-11-08T16:53:44.246Z,100.00
2022-11-08T16:56:10.898Z,100.00
2022-11-08T16:58:37.700Z,100.00
2022-11-08T17:01:10.293Z,100.00
2022-11-08T17:03:37.517Z,100.00
2022-11-08T17:06:04.139Z,100.00
2022-11-08T17:08:30.727Z,100.00
2022-11-08T17:10:57.312Z,100.00
2022-11-08T17:13:23.906Z,100.00
2022-11-08T17:15:51.046Z,100.00
2022-11-08T17:18:20.740Z,100.00
2022-11-08T17:20:47.885Z,100.00
2022-11-08T17:23:16.436Z,100.00
2022-11-08T17:25:44.488Z,100.00
2022-11-08T17:28:12.443Z,100.00
2022-11-08T17:30:44.204Z,100.00
2022-11-08T17:33:12.736Z,100.00
2022-11-08T17:35:42.863Z,100.00
2022-11-08T17:38:11.059Z,100.00
2022-11-08T17:40:37.664Z,100.00
2022-11-08T17:43:04.429Z,100.00
2022-11-08T17:45:31.066Z,100.00
2022-11-08T17:47:57.702Z,100.00
2022-11-08T17:50:24.326Z,100.00
2022-11-08T17:52:53.533Z,100.00
2022-11-08T17:55:20.399Z,100.00
2022-11-08T17:57:47.010Z,100.00
2022-11-08T18:00:14.194Z,100.00
2022-11-08T18:02:40.802Z,100.00
2022-11-08T18:05:07.717Z,100.00
2022-11-08T18:07:34.682Z,100.00
2022-11-08T18:10:02.706Z,100.00
2022-11-08T18:12:31.262Z,100.00
2022-11-08T18:14:57.881Z,100.00
2022-11-08T18:17:24.549Z,100.00
2022-11-08T18:19:51.252Z,100.00
2022-11-08T18:22:17.831Z,100.00
2022-11-08T18:24:47.464Z,100.00
2022-11-08T18:27:16.618Z,100.00
2022-11-08T18:29:43.315Z,100.00
2022-11-08T18:32:09.995Z,100.00
2022-11-08T18:34:36.613Z,100.00
2022-11-08T18:37:03.187Z,100.00
2022-11-08T18:39:29.778Z,100.00
2022-11-08T18:41:56.357Z,100.00
2022-11-08T18:44:22.962Z,100.00
2022-11-08T18:46:49.561Z,100.00
2022-11-08T18:49:16.416Z,100.00
2022-11-08T18:51:43.016Z,100.00
2022-11-08T18:54:09.609Z,100.00
2022-11-08T18:56:36.311Z,100.00
2022-11-08T18:59:02.940Z,100.00
2022-11-08T19:01:29.698Z,100.00
2022-11-08T19:03:56.467Z,100.00
2022-11-08T19:06:23.081Z,100.00
2022-11-08T19:08:49.713Z,100.00
2022-11-08T19:11:20.475Z,100.00
2022-11-08T19:13:47.455Z,100.00
2022-11-08T19:16:16.478Z,100.00
2022-11-08T19:18:44.253Z,100.00
2022-11-08T19:21:14.255Z,100.00
2022-11-08T19:23:41.022Z,100.00
2022-11-08T19:26:11.001Z,100.00
2022-11-08T19:28:39.684Z,100.00
2022-11-08T19:31:06.934Z,100.00
2022-11-08T19:33:33.871Z,100.00
2022-11-08T19:36:05.542Z,100.00
2022-11-08T19:38:36.130Z,100.00
2022-11-08T19:41:07.052Z,100.00
2022-11-08T19:43:35.183Z,100.00
2022-11-08T19:46:03.678Z,100.00
2022-11-08T19:48:32.410Z,100.00
2022-11-08T19:51:04.128Z,100.00
2022-11-08T19:53:30.783Z,100.00
2022-11-08T19:56:01.960Z,100.00
2022-11-08T19:58:28.693Z,100.00
2022-11-08T20:00:56.177Z,100.00
2022-11-08T20:03:22.866Z,100.00
2022-11-08T20:05:53.648Z,100.00
2022-11-08T20:08:21.297Z,100.00
2022-11-08T20:10:52.132Z,100.00
2022-11-08T20:13:18.947Z,100.00
2022-11-08T20:15:48.494Z,100.00
2022-11-08T20:18:15.670Z,100.00
2022-11-08T20:20:43.529Z,100.00
2022-11-08T20:23:15.758Z,100.00
2022-11-08T20:25:42.735Z,100.00
2022-11-08T20:28:09.528Z,100.00
2022-11-08T20:30:36.250Z,100.00
2022-11-08T20:33:03.079Z,100.00
2022-11-08T20:35:31.985Z,100.00
2022-11-08T20:38:01.015Z,100.00
2022-11-08T20:40:27.665Z,100.00
2022-11-08T20:42:54.317Z,100.00
2022-11-08T20:45:20.935Z,100.00
2022-11-08T20:47:48.285Z,100.00
2022-11-08T20:50:15.610Z,100.00
2022-11-08T20:52:42.162Z,100.00
2022-11-08T20:55:08.982Z,100.00
2022-11-08T20:57:35.597Z,100.00
2022-11-08T21:00:13.127Z,100.00
2022-11-08T21:02:40.694Z,100.00
2022-11-08T21:05:07.622Z,100.00
2022-11-08T21:10:42.214Z,100.00
2022-11-08T21:13:07.968Z,100.00
2022-11-08T21:15:35.938Z,100.00
2022-11-08T21:18:02.618Z,100.00
2022-11-08T21:20:29.216Z,100.00
2022-11-08T21:22:55.788Z,100.00
2022-11-08T21:25:25.273Z,100.00
2022-11-08T21:27:51.917Z,100.00
2022-11-08T21:30:18.549Z,100.00
2022-11-08T21:32:45.376Z,100.00
2022-11-08T21:35:12.033Z,100.00
2022-11-08T21:37:38.660Z,100.00
2022-11-08T21:40:05.733Z,100.00
2022-11-08T21:42:38.030Z,100.00
2022-11-08T21:45:06.684Z,100.00
2022-11-08T21:47:33.635Z,100.00
2022-11-08T21:50:00.335Z,100.00
2022-11-08T21:52:27.262Z,100.00
2022-11-08T21:54:54.593Z,100.00
2022-11-08T21:57:21.284Z,100.00
2022-11-08T21:59:47.966Z,100.00
2022-11-08T22:02:15.520Z,100.00
2022-11-08T22:04:42.582Z,100.00
2022-11-08T22:07:09.316Z,100.00
2022-11-08T22:09:36.387Z,100.00
2022-11-08T22:12:03.292Z,100.00
2022-11-08T22:14:31.511Z,100.00
2022-11-08T22:16:58.104Z,100.00
2022-11-08T22:19:24.797Z,100.00
2022-11-08T22:21:51.413Z,99.82
2022-11-08T22:24:20.578Z,98.39
2022-11-08T22:26:49.047Z,100.00
2022-11-08T22:29:16.125Z,100.00
2022-11-08T22:31:43.264Z,99.82
2022-11-08T22:34:10.263Z,99.41
2022-11-08T22:36:43.983Z,98.00
2022-11-08T22:39:13.025Z,97.83
2022-11-08T22:41:42.500Z,97.24
2022-11-08T22:44:12.320Z,98.70
2022-11-08T22:46:40.251Z,98.88
2022-11-08T22:49:07.016Z,99.38
2022-11-08T22:51:33.855Z,100.00
2022-11-08T22:54:00.581Z,99.81
2022-11-08T22:56:27.537Z,100.00
2022-11-08T22:58:54.242Z,100.00
2022-11-08T23:01:20.929Z,100.00
2022-11-08T23:03:48.164Z,100.00
2022-11-08T23:06:15.878Z,99.56
2022-11-08T23:08:43.011Z,100.00
2022-11-08T23:11:28.354Z,100.00
2022-11-08T23:14:13.683Z,100.00
2022-11-08T23:16:43.077Z,100.00
2022-11-08T23:19:36.914Z,100.00
2022-11-08T23:22:24.318Z,100.00
2022-11-08T23:24:51.038Z,100.00
2022-11-08T23:27:37.802Z,100.00
2022-11-08T23:30:25.078Z,100.00
2022-11-08T23:32:52.479Z,100.00
2022-11-08T23:35:20.436Z,100.00
2022-11-08T23:37:47.108Z,100.00
2022-11-08T23:40:36.769Z,100.00
2022-11-08T23:43:25.534Z,100.00
2022-11-08T23:45:52.543Z,100.00
2022-11-08T23:48:19.296Z,100.00
2022-11-08T23:50:50.864Z,100.00
2022-11-08T23:53:18.914Z,100.00
2022-11-08T23:55:45.857Z,100.00
2022-11-08T23:58:14.211Z,100.00
